Aviation Digital Data Service (ADDS)

Output produced by METARs form (1844 UTC 18 June 2019)
found at http://www.aviationweather.gov/metar/data/
 
VLLB 181300Z 24004KT 9999 SCT020 BKN060 30/23 Q1005 NOSIG
TAF VLLB 181700Z 1818/1918 20006KT 9999 SCT017 BKN060
       
VLPS 181300Z 14002KT 7000 RA SCT023 BKN050 27/25 Q1007 NOSIG
TAF VLPS 181700Z 1812/1912 18006KT 9999 SCT020 BKN050
       
TAF VLSK 181700Z 1818/1918 18004KT 8000 SCT020 BKN100 
     TEMPO 1818/1822 4000 BR SCT040 BKN100
       
VLVT 181600Z 32002KT 4000 BR BKN040 26/26 Q1007 NOSIG
TAF VLVT 181700Z 1818/1918 18006KT 9999 SCT016 SCT040 
     TEMPO 1818/1822 4000 BR BKN040 BKN088